Time;durP1;ratioP1;P1;durP2;ratioP2;P2;SDS_P1;SDS_P2;PMS_P1;PMS_P2;Temp;Humidity;BMP_temperature;BMP_pressure;BME280_temperature;BME280_humidity;BME280_pressure;Samples;Min_cycle;Max_cycle;Signal;HPM_P1;HPM_P2
2021/04/06 00:00:53;;;;;;;4.40;2.83;;;;;;;;;;5031453;28;20021;-54
2021/04/06 00:03:22;;;;;;;4.40;2.80;;;;;;;;;;5032287;28;20052;-55
2021/04/06 00:05:51;;;;;;;4.55;2.80;;;22.70;53.90;;;;;;5032545;28;20044;-54
2021/04/06 00:08:18;;;;;;;4.78;2.83;;;;;;;;;;5017398;28;20037;-55
2021/04/06 00:10:53;;;;;;;4.68;2.97;;;22.60;53.80;;;;;;5030664;28;20458;-54
2021/04/06 00:13:20;;;;;;;4.15;2.92;;;22.50;54.10;;;;;;5031472;28;20025;-54
2021/04/06 00:15:47;;;;;;;3.72;2.83;;;22.50;54.10;;;;;;5031247;28;20112;-54
2021/04/06 00:18:17;;;;;;;4.25;2.60;;;;;;;;;;5028910;28;20029;-54
2021/04/06 00:20:45;;;;;;;4.47;2.80;;;22.40;53.70;;;;;;5023370;28;20474;-54
2021/04/06 00:23:11;;;;;;;5.25;3.42;;;22.40;54.10;;;;;;5031818;28;20022;-55
2021/04/06 00:25:42;;;;;;;4.57;3.10;;;22.30;54.10;;;;;;5022596;28;20022;-54
2021/04/06 00:28:10;;;;;;;4.40;3.05;;;;;;;;;;5031506;28;20026;-54
2021/04/06 00:30:36;;;;;;;3.63;2.50;;;;;;;;;;5031635;28;20013;-54
2021/04/06 00:33:07;;;;;;;3.05;2.38;;;;;;;;;;5021929;28;20109;-54
2021/04/06 00:35:35;;;;;;;4.30;2.78;;;;;;;;;;5019204;28;20467;-54
2021/04/06 00:38:02;;;;;;;3.42;2.50;;;;;;;;;;5032145;28;20025;-54
2021/04/06 00:40:32;;;;;;;4.40;3.13;;;;;;;;;;5031934;28;20026;-54
2021/04/06 00:42:59;;;;;;;4.25;2.88;;;;;;;;;;5030696;28;20063;-54
2021/04/06 00:45:26;;;;;;;4.25;2.78;;;;;;;;;;5031048;28;20018;-54
2021/04/06 00:47:59;;;;;;;3.90;2.83;;;;;;;;;;5032672;28;20044;-54
2021/04/06 00:50:29;;;;;;;3.42;2.47;;;;;;;;;;5031243;28;20025;-54
2021/04/06 00:52:56;;;;;;;4.30;2.60;;;;;;;;;;5028415;28;20080;-54
2021/04/06 00:55:22;;;;;;;4.47;2.65;;;;;;;;;;5031785;28;20095;-54
2021/04/06 00:57:48;;;;;;;4.32;2.67;;;;;;;;;;5014898;28;20022;-54
2021/04/06 01:00:14;;;;;;;2.97;2.25;;;;;;;;;;5031923;28;20021;-54
2021/04/06 01:02:44;;;;;;;3.63;2.65;;;;;;;;;;5031792;28;20386;-54
2021/04/06 01:05:10;;;;;;;3.58;2.60;;;;;;;;;;5031004;28;20025;-55
2021/04/06 01:07:37;;;;;;;4.53;2.63;;;;;;;;;;5030813;28;20036;-54
2021/04/06 01:10:06;;;;;;;3.22;2.15;;;;;;;;;;5031583;28;20121;-54
2021/04/06 01:12:32;;;;;;;3.92;2.45;;;;;;;;;;5032214;28;20022;-55
2021/04/06 01:14:58;;;;;;;3.30;2.30;;;;;;;;;;5031614;28;20029;-54
2021/04/06 01:17:26;;;;;;;2.83;2.40;;;;;;;;;;5031943;28;20035;-54
2021/04/06 01:19:52;;;;;;;3.28;2.30;;;;;;;;;;5031221;28;20034;-56
2021/04/06 01:22:19;;;;;;;4.65;2.50;;;;;;;;;;5025144;28;20029;-54
2021/04/06 01:24:46;;;;;;;3.10;2.58;;;;;;;;;;5031780;28;20097;-54
2021/04/06 01:27:16;;;;;;;3.65;2.40;;;;;;;;;;5029217;28;20021;-55
2021/04/06 01:29:56;;;;;;;3.47;2.50;;;;;;;;;;5030587;28;20028;-54
2021/04/06 01:32:23;;;;;;;3.40;2.20;;;;;;;;;;5031785;28;20028;-54
2021/04/06 01:34:50;;;;;;;2.92;2.10;;;;;;;;;;5026973;28;20475;-54
2021/04/06 01:37:23;;;;;;;3.80;2.53;;;;;;;;;;5030422;28;20403;-54
2021/04/06 01:39:51;;;;;;;3.75;2.33;;;;;;;;;;5031823;28;20046;-54
2021/04/06 01:42:18;;;;;;;3.45;2.17;;;;;;;;;;5034072;28;20025;-54
2021/04/06 01:44:48;;;;;;;4.13;2.35;;;;;;;;;;5035560;28;20024;-54
2021/04/06 01:47:16;;;;;;;3.85;2.17;;;;;;;;;;5035119;28;20024;-54
2021/04/06 01:49:43;;;;;;;3.55;2.15;;;;;;;;;;5032470;28;20038;-54
2021/04/06 01:52:09;;;;;;;5.38;3.15;;;;;;;;;;5029591;28;20026;-54
2021/04/06 01:54:37;;;;;;;3.33;2.40;;;;;;;;;;5035042;28;20027;-54
2021/04/06 01:57:16;;;;;;;3.65;2.20;;;;;;;;;;5033107;28;20481;-53
2021/04/06 01:59:53;;;;;;;4.03;2.60;;;;;;;;;;5034016;28;20104;-55
2021/04/06 02:02:23;;;;;;;2.60;2.10;;;;;;;;;;5035383;28;20032;-55
2021/04/06 02:04:54;;;;;;;2.75;1.88;;;;;;;;;;5035682;28;20029;-55
2021/04/06 02:07:23;;;;;;;3.38;2.20;;;;;;;;;;5034912;28;20022;-54
2021/04/06 02:09:49;;;;;;;2.83;2.20;;;;;;;;;;5034778;28;20033;-54
2021/04/06 02:12:20;;;;;;;3.88;2.55;;;;;;;;;;5028038;28;20034;-54
2021/04/06 02:14:46;;;;;;;4.28;2.47;;;;;;;;;;5033207;28;20076;-54
2021/04/06 02:17:12;;;;;;;2.50;1.98;;;;;;;;;;5033395;28;20370;-54
2021/04/06 02:19:40;;;;;;;3.47;2.20;;;;;;;;;;5031944;28;20029;-54
2021/04/06 02:22:08;;;;;;;2.45;2.22;;;;;;;;;;5031269;28;20063;-54
2021/04/06 02:24:40;;;;;;;3.08;2.05;;;;;;;;;;5034671;28;20100;-53
2021/04/06 02:27:08;;;;;;;2.80;2.10;;;;;;;;;;5034490;28;20450;-54
2021/04/06 02:29:38;;;;;;;2.33;2.10;;;;;;;;;;5034456;28;20018;-54
2021/04/06 02:32:28;;;;;;;2.65;2.30;;;;;;;;;;5034507;28;20013;-53
2021/04/06 02:34:55;;;;;;;2.85;2.10;;;;;;;;;;5028931;28;20094;-54
2021/04/06 02:37:22;;;;;;;3.35;2.10;;;;;;;;;;5024574;28;20036;-54
2021/04/06 02:39:49;;;;;;;2.97;2.22;;;;;;;;;;5034692;28;20028;-54
2021/04/06 02:42:26;;;;;;;2.95;2.00;;;;;;;;;;5032758;28;20017;-54
2021/04/06 02:45:11;;;;;;;2.88;2.10;;;;;;;;;;5028964;28;20033;-54
2021/04/06 02:47:41;;;;;;;2.80;2.03;;;;;;;;;;5032496;28;20017;-54
2021/04/06 02:50:10;;;;;;;2.80;2.10;;;;;;;;;;5033087;28;20016;-54
2021/04/06 02:52:37;;;;;;;2.22;1.90;;;;;;;;;;5032633;28;20010;-54
2021/04/06 02:55:04;;;;;;;3.15;2.20;;;;;;;;;;5033065;28;20044;-54
2021/04/06 02:57:30;;;;;;;3.03;2.08;;;;;;;;;;5033708;28;20017;-54
2021/04/06 02:59:57;;;;;;;3.00;2.15;;;;;;;;;;5034130;28;20018;-54
2021/04/06 03:02:23;;;;;;;2.90;2.03;;;;;;;;;;5032166;28;20028;-54
2021/04/06 03:04:50;;;;;;;3.08;2.10;;;;;;;;;;5032481;28;20078;-54
2021/04/06 03:07:20;;;;;;;2.40;1.90;;;;;;;;;;5033770;28;20025;-54
2021/04/06 03:09:56;;;;;;;3.00;2.70;;;;;;;;;;5033260;28;20041;-54
2021/04/06 03:12:32;;;;;;;2.45;1.98;;;;;;;;;;5033564;28;20140;-54
2021/04/06 03:14:59;;;;;;;2.80;2.35;;;;;;;;;;5033656;28;20029;-54
2021/04/06 03:17:26;;;;;;;2.47;1.98;;;;;;;;;;5032332;28;20033;-54
2021/04/06 03:19:59;;;;;;;1.83;1.70;;;;;;;;;;5032070;28;20080;-53
2021/04/06 03:22:26;;;;;;;4.55;2.10;;;;;;;;;;5032116;28;20028;-54
2021/04/06 03:24:52;;;;;;;2.60;2.10;;;;;;;;;;5032333;28;20025;-54
2021/04/06 03:27:29;;;;;;;3.00;2.00;;;;;;;;;;5031131;28;20381;-54
2021/04/06 03:29:56;;;;;;;3.03;2.00;;;;;;;;;;5032613;28;20088;-55
2021/04/06 03:32:22;;;;;;;2.17;1.90;;;;;;;;;;5032425;28;20430;-54
2021/04/06 03:34:49;;;;;;;2.35;1.73;;;;;;;;;;5032447;28;20044;-54
2021/04/06 03:37:15;;;;;;;2.95;2.33;;;;;;;;;;5032029;28;20026;-55
2021/04/06 03:39:41;;;;;;;2.55;1.77;;;;;;;;;;5032173;28;20071;-54
2021/04/06 03:42:07;;;;;;;2.42;1.90;;;;;;;;;;5031846;28;20458;-53
2021/04/06 03:44:34;;;;;;;2.45;1.80;;;;;;;;;;5032515;28;20021;-54
2021/04/06 03:47:04;;;;;;;2.70;1.92;;;;;;;;;;5030764;28;20076;-54
2021/04/06 03:49:31;;;;;;;2.53;1.90;;;;;;;;;;5029109;28;20049;-54
2021/04/06 03:52:02;;;;;;;2.38;1.77;;;;;;;;;;5033190;28;20045;-54
2021/04/06 03:54:39;;;;;;;2.15;1.60;;;;;;;;;;5032569;28;20032;-54
2021/04/06 03:57:23;;;;;;;2.15;1.77;;;;;;;;;;5031639;28;20398;-54
2021/04/06 03:59:50;;;;;;;2.25;1.88;;;;;;;;;;5019843;28;20025;-54
2021/04/06 04:02:16;;;;;;;2.03;1.70;;;;;;;;;;5031156;28;20109;-54
2021/04/06 04:04:42;;;;;;;2.60;1.90;;;;;;;;;;5031090;28;20025;-54
2021/04/06 04:07:09;;;;;;;2.88;1.90;;;;;;;;;;5032808;28;20025;-53
2021/04/06 04:09:35;;;;;;;1.95;1.80;;;;;;;;;;5032701;28;20069;-54
2021/04/06 04:12:01;;;;;;;1.90;1.67;;;;;;;;;;5031437;28;20017;-54
2021/04/06 04:14:28;;;;;;;2.15;1.80;;;;;;;;;;5032333;28;20160;-54
2021/04/06 04:16:54;;;;;;;2.40;1.70;;;;;;;;;;5032846;28;20020;-54
2021/04/06 04:19:20;;;;;;;1.88;1.60;;;;;;;;;;5029657;28;20829;-54
2021/04/06 04:21:46;;;;;;;2.08;1.70;;;;;;;;;;5031408;28;20382;-54
2021/04/06 04:24:12;;;;;;;2.10;1.90;;;;;;;;;;5032696;28;20465;-54
2021/04/06 04:26:38;;;;;;;1.88;1.67;;;;;;;;;;5030909;28;20029;-54
2021/04/06 04:29:04;;;;;;;2.50;2.00;;;;;;;;;;5032668;28;20029;-54
2021/04/06 04:31:31;;;;;;;2.42;1.85;;;;;;;;;;5030793;28;20992;-54
2021/04/06 04:33:57;;;;;;;2.60;2.15;;;;;;;;;;5032498;28;20034;-54
2021/04/06 04:36:23;;;;;;;2.90;2.10;;;;;;;;;;5032302;28;20037;-54
2021/04/06 04:38:49;;;;;;;2.10;1.90;;;;;;;;;;5030887;28;20040;-54
2021/04/06 04:41:15;;;;;;;3.42;1.83;;;;;;;;;;5025554;28;20033;-54
2021/04/06 04:43:42;;;;;;;2.90;2.30;;;;;;;;;;5032236;28;20474;-53
2021/04/06 04:46:08;;;;;;;1.98;1.63;;;;;;;;;;5032529;28;20187;-54
2021/04/06 04:48:34;;;;;;;1.88;1.50;;;;;;;;;;5031946;28;20022;-54
2021/04/06 04:51:00;;;;;;;3.08;1.98;;;;;;;;;;5031931;28;20018;-54
2021/04/06 04:53:26;;;;;;;2.42;1.60;;;;;;;;;;5032000;28;20033;-54
2021/04/06 04:55:52;;;;;;;2.53;1.90;;;;;;;;;;5030891;28;20017;-54
2021/04/06 04:58:19;;;;;;;4.40;2.53;;;;;;;;;;5026476;28;20060;-54
2021/04/06 05:00:45;;;;;;;2.10;1.90;;;;;;;;;;5031895;28;20347;-54
2021/04/06 05:03:11;;;;;;;2.33;1.58;;;;;;;;;;5030811;28;20022;-54
2021/04/06 05:05:37;;;;;;;1.70;1.50;;;;;;;;;;5031922;28;20026;-54
2021/04/06 05:08:03;;;;;;;2.30;1.77;;;;;;;;;;5031780;28;20024;-54
2021/04/06 05:10:29;;;;;;;2.13;1.75;;;;;;;;;;5026690;28;20504;-54
2021/04/06 05:12:55;;;;;;;2.83;1.90;;;;;;;;;;5024409;28;20033;-54
2021/04/06 05:15:21;;;;;;;2.40;1.60;;;;;;;;;;5031403;28;20033;-54
2021/04/06 05:17:47;;;;;;;2.60;1.70;;;;;;;;;;5035717;28;20010;-54
2021/04/06 05:20:14;;;;;;;2.60;1.67;;;;;;;;;;5035746;28;20335;-54
2021/04/06 05:22:40;;;;;;;2.95;1.60;;;;;;;;;;5018316;28;20029;-54
2021/04/06 05:25:06;;;;;;;2.50;1.80;;;;;;;;;;5034421;28;20022;-54
2021/04/06 05:27:33;;;;;;;1.80;1.60;;;;;;;;;;5027683;28;20030;-54
2021/04/06 05:29:59;;;;;;;2.00;1.58;;;;;;;;;;5032647;28;20109;-54
2021/04/06 05:32:25;;;;;;;2.50;1.80;;;;;;;;;;5034215;28;20017;-54
2021/04/06 05:34:51;;;;;;;1.60;1.50;;;;;;;;;;5026223;28;20033;-54
2021/04/06 05:37:17;;;;;;;1.70;1.60;;;;;;;;;;5034030;28;20021;-54
2021/04/06 05:39:43;;;;;;;1.60;1.50;;;;;;;;;;5035294;28;20026;-54
2021/04/06 05:42:11;;;;;;;1.67;1.58;;;;;;;;;;5034354;28;20089;-54
2021/04/06 05:44:39;;;;;;;1.90;1.50;;;;;;;;;;5023963;28;20021;-55
2021/04/06 05:47:05;;;;;;;2.13;1.40;;;;;;;;;;5034447;28;20028;-54
2021/04/06 05:49:33;;;;;;;2.20;1.60;;;;;;;;;;5034694;28;20075;-54
2021/04/06 05:51:59;;;;;;;2.03;1.67;;;;;;;;;;5033857;28;20112;-55
2021/04/06 05:54:26;;;;;;;2.03;1.63;;;;;;;;;;5033559;28;20501;-54
2021/04/06 05:56:52;;;;;;;1.98;1.67;;;;;;;;;;5033461;28;20087;-55
2021/04/06 05:59:18;;;;;;;2.42;1.55;;;;;;;;;;5029938;28;20029;-54
2021/04/06 06:01:46;;;;;;;2.95;1.52;;;;;;;;;;5035542;28;20413;-54
2021/04/06 06:04:13;;;;;;;1.65;1.50;;;;;;;;;;5034734;28;20025;-54
2021/04/06 06:06:39;;;;;;;1.80;1.60;;;;;;;;;;5034611;28;20037;-54
2021/04/06 06:09:08;;;;;;;1.60;1.50;;;;;;;;;;5034466;28;20099;-54
2021/04/06 06:11:34;;;;;;;2.33;1.73;;;;;;;;;;5033239;28;20097;-54
2021/04/06 06:14:00;;;;;;;2.58;1.70;;;;;;;;;;5029666;28;20037;-55
2021/04/06 06:16:27;;;;;;;1.40;1.30;;;;;;;;;;5034507;28;20017;-54
2021/04/06 06:19:02;;;;;;;2.03;1.83;;;;;;;;;;5034950;28;20022;-54
2021/04/06 06:21:37;;;;;;;2.40;1.73;;;;;;;;;;5034153;28;21678;-54
2021/04/06 06:24:03;;;;;;;;;;;;;;;;;;5034983;28;20037;-54
2021/04/06 06:26:29;;;;;;;2.47;1.63;;;;;;;;;;5033532;28;20369;-55
2021/04/06 06:29:16;;;;;;;1.80;1.48;;;;;;;;;;5023716;28;20032;-54
2021/04/06 06:31:44;;;;;;;1.63;1.52;;;;;;;;;;5033216;28;20025;-54
2021/04/06 06:34:26;;;;;;;1.60;1.50;;;;;;;;;;5033325;28;20057;-55
2021/04/06 06:37:01;;;;;;;1.63;1.50;;;;;;;;;;5034110;28;20024;-55
2021/04/06 06:39:27;;;;;;;1.92;1.67;;;;;;;;;;5034114;28;20013;-54
2021/04/06 06:42:20;;;;;;;1.30;1.27;;;;;;;;;;5033294;28;20049;-54
2021/04/06 06:44:46;;;;;;;1.63;1.52;;;;;;;;;;5020675;28;20037;-55
2021/04/06 06:47:23;;;;;;;1.80;1.50;;;;;;;;;;5034232;28;20024;-54
2021/04/06 06:49:53;;;;;;;1.88;1.77;;;;;;;;;;5034398;28;20018;-55
2021/04/06 06:52:22;;;;;;;2.00;1.80;;;;;;;;;;5032714;28;20116;-54
2021/04/06 06:55:08;;;;;;;1.92;1.83;;;;;;;;;;5034109;28;20462;-55
2021/04/06 06:57:35;;;;;;;1.60;1.50;;;;;;;;;;5028234;28;20373;-54
2021/04/06 07:00:07;;;;;;;2.08;1.60;;;;;;;;;;5032989;28;20030;-56
2021/04/06 07:02:34;;;;;;;2.05;1.90;;;;;;;;;;5033347;28;20018;-54
2021/04/06 07:05:14;;;;;;;2.08;1.88;;;;;;;;;;5032877;28;20401;-54
2021/04/06 07:08:03;;;;;;;1.60;1.50;;;;;;;;;;5033175;28;20529;-54
2021/04/06 07:10:31;;;;;;;1.98;1.77;;;;;;;;;;5025670;28;20071;-54
2021/04/06 07:13:05;;;;;;;1.63;1.50;;;;;;;;;;5030519;28;20014;-54
2021/04/06 07:15:32;;;;;;;1.60;1.50;;;;;;;;;;5031326;28;20413;-54
2021/04/06 07:18:05;;;;;;;1.55;1.45;;;;;;;;;;5027688;28;20079;-54
2021/04/06 07:20:33;;;;;;;1.60;1.50;;;;;;;;;;5028161;28;20068;-54
2021/04/06 07:23:00;;;;;;;1.75;1.63;;;;;;;;;;5030390;28;20056;-54
2021/04/06 07:25:26;;;;;;;1.40;1.30;;;;;;;;;;5028910;28;20083;-54
2021/04/06 07:27:52;;;;;;;1.38;1.25;;;;;;;;;;5030336;28;20017;-54
2021/04/06 07:30:19;;;;;;;1.30;1.30;;;;;;;;;;5031443;28;20409;-54
2021/04/06 07:32:45;;;;;;;2.13;1.63;;;;;;;;;;5032964;28;20017;-54
2021/04/06 07:35:12;;;;;;;1.50;1.40;;;;;;;;;;5026930;28;20030;-54
2021/04/06 07:37:44;;;;;;;2.20;1.60;;;;;;;;;;5029520;28;20117;-54
2021/04/06 07:40:11;;;;;;;1.27;1.20;;;;;;;;;;5030413;28;20052;-54
2021/04/06 07:42:42;;;;;;;1.40;1.30;;;;;;;;;;5030249;28;20017;-54
2021/04/06 07:45:29;;;;;;;6.45;2.08;;;;;;;;;;5028334;28;20037;-54
2021/04/06 07:47:55;;;;;;;2.33;1.60;;;;;;;;;;5023029;28;20030;-54
2021/04/06 07:50:34;;;;;;;1.50;1.40;;;;;;;;;;5030896;28;20032;-55
2021/04/06 07:53:19;;;;;;;2.92;1.40;;;;;;;;;;5027705;28;20076;-54
2021/04/06 07:55:45;;;;;;;1.53;1.43;;;;;;;;;;5024429;28;20513;-55
2021/04/06 07:58:11;;;;;;;1.50;1.40;;;;;;;;;;5028424;28;20264;-55
2021/04/06 08:00:51;;;;;;;1.92;1.50;;;;;;;;;;5030131;28;20035;-55
2021/04/06 08:03:36;;;;;;;2.05;1.52;;;;;;;;;;5029336;28;20358;-55
2021/04/06 08:06:17;;;;;;;2.47;1.47;;;;;;;;;;5023500;28;20477;-54
2021/04/06 08:08:44;;;;;;;1.60;1.50;;;;;;;;;;5019972;28;20064;-54
2021/04/06 08:11:10;;;;;;;3.53;1.92;;;;;;;;;;5028317;28;20028;-54
2021/04/06 08:13:36;;;;;;;2.13;1.63;;;;;;;;;;5029402;28;20366;-54
2021/04/06 08:16:15;;;;;;;2.47;1.50;;;;;;;;;;5030266;28;20531;-54
2021/04/06 08:18:55;;;;;;;2.45;1.70;;;;;;;;;;5029722;28;20356;-54
2021/04/06 08:21:27;;;;;;;1.90;1.60;;;;;;;;;;5023484;28;20465;-54
2021/04/06 08:23:53;;;;;;;1.88;1.40;;;;;;;;;;5020447;28;20056;-55
2021/04/06 08:26:30;;;;;;;1.45;1.35;;;;;;;;;;5028785;28;20014;-54
2021/04/06 08:28:57;;;;;;;3.03;1.40;;;;;;;;;;5031096;28;20365;-55
2021/04/06 08:31:31;;;;;;;2.58;1.70;;;;;;;;;;5030773;28;20486;-54
2021/04/06 08:34:16;;;;;;;1.65;1.55;;;;;;;;;;5030706;28;20034;-56
2021/04/06 08:36:42;;;;;;;2.85;1.42;;;;;;;;;;5028006;28;20105;-56
2021/04/06 08:39:08;;;;;;;2.03;1.40;;;;;;;;;;5029855;28;20021;-55
2021/04/06 08:41:35;;;;;;;1.60;1.50;;;;;;;;;;5028680;28;20025;-55
2021/04/06 08:44:05;;;;;;;1.60;1.45;;;;;;;;;;5025308;28;20037;-55
2021/04/06 08:46:42;;;;;;;1.75;1.55;;;;;;;;;;5027460;28;20056;-55
2021/04/06 08:49:23;;;;;;;4.88;1.80;;;;;;;;;;5025185;28;20026;-55
2021/04/06 08:51:53;;;;;;;2.63;1.60;;;;;;;;;;5023861;28;20017;-55
2021/04/06 08:54:24;;;;;;;1.90;1.65;;;;;;;;;;5029453;28;20021;-55
2021/04/06 08:56:53;;;;;;;2.17;1.40;;;;;;;;;;5021994;28;20030;-55
2021/04/06 08:59:25;;;;;;;2.13;1.85;;;;;;;;;;5033961;28;20044;-53
2021/04/06 09:01:55;;;;;;;1.85;1.67;;;;;;;;;;5026011;28;20029;-54
2021/04/06 09:04:23;;;;;;;2.72;1.70;;;;;;;;;;5025209;28;20025;-55
2021/04/06 09:06:49;;;;;;;2.55;1.63;;;;;;;;;;5016685;28;20028;-54
2021/04/06 09:09:20;;;;;;;2.50;1.50;;;;;;;;;;5023577;28;20092;-54
2021/04/06 09:11:46;;;;;;;1.55;1.42;;;;;;;;;;5022411;28;20022;-54
2021/04/06 09:14:14;;;;;;;2.60;1.60;;;;;;;;;;5031212;28;20026;-55
2021/04/06 09:16:40;;;;;;;2.58;1.80;;;;;;;;;;5028349;28;20485;-55
2021/04/06 09:38:24;;;;;;;5.70;2.00;;;14.00;52.30;;;;;;5100066;27;20913;-74
2021/04/06 09:40:51;;;;;;;5.57;2.00;;;14.10;51.90;;;;;;5070218;28;20031;-62
2021/04/06 09:43:17;;;;;;;4.20;1.90;;;15.40;51.10;;;;;;5083706;28;20043;-62
2021/04/06 09:45:46;;;;;;;3.30;2.30;;;16.60;50.00;;;;;;5084523;28;20028;-66
2021/04/06 09:48:13;;;;;;;5.72;2.30;;;17.60;48.30;;;;;;5084390;28;20341;-65
2021/04/06 09:50:40;;;;;;;6.57;2.08;;;18.60;46.70;;;;;;5083436;28;20032;-67
2021/04/06 09:53:17;;;;;;;5.50;2.00;;;19.40;45.50;;;;;;5084519;28;20448;-68
2021/04/06 09:55:43;;;;;;;3.58;2.15;;;20.10;43.60;;;;;;5080928;28;20028;-68
2021/04/06 09:58:09;;;;;;;4.80;2.10;;;20.60;43.10;;;;;;5087145;28;20032;-67
2021/04/06 10:00:37;;;;;;;4.38;2.10;;;21.10;42.10;;;;;;5083164;28;20498;-66
2021/04/06 10:03:14;;;;;;;4.45;2.38;;;21.80;41.80;;;;;;5080129;28;20029;-67
2021/04/06 10:05:43;;;;;;;3.92;1.88;;;22.80;41.30;;;;;;5082649;28;20028;-69
2021/04/06 10:08:24;;;;;;;3.22;2.00;;;23.90;40.40;;;;;;5084167;28;20173;-72
2021/04/06 10:10:50;;;;;;;2.33;1.60;;;24.60;39.30;;;;;;5081284;28;20032;-70
2021/04/06 10:13:16;;;;;;;4.03;1.98;;;25.10;39.10;;;;;;5085018;28;20085;-69
2021/04/06 10:15:41;;;;;;;4.15;1.80;;;25.30;38.40;;;;;;5084468;28;20036;-66
2021/04/06 10:18:12;;;;;;;4.65;1.70;;;25.30;38.10;;;;;;5083925;28;20032;-67
2021/04/06 10:20:47;;;;;;;4.28;1.90;;;25.10;37.60;;;;;;5084785;28;20031;-68
2021/04/06 10:23:29;;;;;;;2.35;1.92;;;24.80;37.40;;;;;;5084777;28;20173;-67
2021/04/06 10:25:55;;;;;;;3.58;1.80;;;24.50;37.80;;;;;;5088601;28;20056;-68
2021/04/06 10:28:24;;;;;;;4.40;1.70;;;24.20;38.00;;;;;;5105035;28;20035;-68
2021/04/06 10:30:56;;;;;;;2.70;1.83;;;24.20;38.00;;;;;;5105331;28;20520;-67
2021/04/06 10:33:36;;;;;;;4.07;1.80;;;24.30;38.00;;;;;;5096147;28;20028;-70
2021/04/06 10:36:24;;;;;;;2.83;1.52;;;24.30;37.70;;;;;;5085236;28;20040;-69
2021/04/06 10:39:02;;;;;;;4.82;2.10;;;24.20;37.60;;;;;;5078296;28;20047;-69
2021/04/06 10:41:27;;;;;;;5.82;2.10;;;24.00;37.40;;;;;;5083050;28;20028;-71
2021/04/06 10:43:56;;;;;;;3.60;1.70;;;23.90;37.80;;;;;;5081450;28;20024;-63
2021/04/06 10:46:24;;;;;;;2.42;1.65;;;23.90;38.30;;;;;;5078267;28;20565;-62
2021/04/06 10:48:53;;;;;;;6.75;1.90;;;23.90;37.90;;;;;;5074848;28;20088;-63
2021/04/06 10:51:22;;;;;;;5.05;2.00;;;24.30;38.20;;;;;;5069514;28;20093;-63
2021/04/06 10:53:51;;;;;;;4.47;1.80;;;24.50;38.40;;;;;;5070580;28;20024;-63
2021/04/06 10:56:31;;;;;;;3.20;2.28;;;24.60;38.40;;;;;;5069146;28;20035;-63
2021/04/06 10:58:59;;;;;;;6.13;1.90;;;24.70;38.20;;;;;;5065566;28;20029;-64
2021/04/06 11:01:40;;;;;;;4.28;1.90;;;24.60;38.20;;;;;;5070618;28;20557;-64
2021/04/06 11:04:12;;;;;;;10.05;2.30;;;24.60;38.00;;;;;;5070514;28;20494;-64
2021/04/06 11:06:41;;;;;;;7.75;2.22;;;24.70;37.60;;;;;;5070566;28;20031;-64
2021/04/06 11:09:16;;;;;;;3.10;2.05;;;24.80;37.90;;;;;;5074016;28;20078;-64
2021/04/06 11:11:44;;;;;;;3.53;1.85;;;25.00;38.00;;;;;;5068979;28;20075;-64
2021/04/06 11:14:15;;;;;;;4.25;2.10;;;25.00;38.00;;;;;;5070256;28;20028;-63
2021/04/06 11:16:42;;;;;;;5.20;2.28;;;25.10;37.70;;;;;;5069471;28;20028;-64
2021/04/06 11:19:23;;;;;;;5.20;2.10;;;25.20;37.80;;;;;;5069091;28;20386;-63
2021/04/06 11:21:54;;;;;;;3.88;1.48;;;25.20;37.50;;;;;;5069943;28;20032;-65
2021/04/06 11:24:22;;;;;;;4.57;1.83;;;25.10;37.20;;;;;;5068678;28;20032;-65
2021/04/06 11:26:49;;;;;;;6.20;1.80;;;24.90;37.10;;;;;;5067974;28;20389;-61
2021/04/06 11:29:16;;;;;;;5.82;1.65;;;24.70;36.70;;;;;;5068683;28;20032;-62
2021/04/06 11:31:46;;;;;;;3.17;2.13;;;24.50;36.70;;;;;;5068944;28;20509;-66
2021/04/06 11:34:12;;;;;;;4.07;1.80;;;24.30;36.70;;;;;;5081371;28;20038;-65
2021/04/06 11:36:39;;;;;;;2.97;1.73;;;24.10;36.80;;;;;;5067016;28;20072;-63
2021/04/06 11:39:07;;;;;;;3.55;1.63;;;23.90;36.80;;;;;;5067434;28;20108;-63
2021/04/06 11:41:37;;;;;;;2.30;1.70;;;23.80;36.90;;;;;;5069615;28;20132;-63
2021/04/06 11:44:04;;;;;;;3.88;2.22;;;23.60;36.80;;;;;;5067121;28;20025;-65
2021/04/06 11:46:32;;;;;;;2.80;1.73;;;23.60;36.90;;;;;;5069583;28;20517;-64
2021/04/06 11:48:58;;;;;;;3.85;1.95;;;23.50;36.80;;;;;;5065698;28;20032;-65
2021/04/06 11:51:24;;;;;;;2.40;1.58;;;23.40;36.90;;;;;;5069866;28;20035;-64
2021/04/06 11:53:50;;;;;;;3.95;1.63;;;23.30;36.80;;;;;;5063991;28;20051;-64
2021/04/06 11:56:16;;;;;;;4.90;1.80;;;23.20;36.80;;;;;;5066816;28;20503;-62
2021/04/06 11:58:42;;;;;;;1.73;1.30;;;23.00;36.80;;;;;;5068162;28;20066;-64
2021/04/06 12:01:08;;;;;;;3.17;1.50;;;22.90;45.10;;;;;;5065002;28;20110;-64
2021/04/06 12:03:33;;;;;;;2.80;1.70;;;22.70;36.80;;;;;;5064196;28;20533;-64
2021/04/06 12:05:59;;;;;;;4.00;1.73;;;22.60;36.90;;;;;;5065020;28;20059;-64
2021/04/06 12:08:25;;;;;;;2.13;1.42;;;22.60;37.50;;;;;;5066548;28;21314;-64
2021/04/06 12:10:51;;;;;;;4.13;1.77;;;22.50;37.00;;;;;;5064909;28;20394;-63
2021/04/06 12:13:17;;;;;;;1.65;1.55;;;22.50;37.00;;;;;;5068370;28;20028;-64
2021/04/06 12:15:44;;;;;;;2.22;1.60;;;22.60;37.00;;;;;;5065876;28;20031;-64
2021/04/06 12:18:10;;;;;;;4.93;1.70;;;22.50;36.90;;;;;;5068158;28;20043;-65
2021/04/06 12:20:36;;;;;;;4.68;1.70;;;22.50;36.90;;;;;;5082592;28;20029;-64
2021/04/06 12:23:02;;;;;;;3.22;1.90;;;22.70;38.90;;;;;;5067179;28;20024;-65
2021/04/06 12:25:28;;;;;;;4.05;1.95;;;22.60;37.00;;;;;;5065490;28;20028;-62
2021/04/06 12:27:53;;;;;;;3.13;2.13;;;22.70;43.50;;;;;;5062760;28;20166;-65
2021/04/06 12:30:20;;;;;;;3.75;2.08;;;22.50;37.10;;;;;;5064546;28;20033;-64
2021/04/06 12:32:46;;;;;;;5.05;2.25;;;22.40;37.20;;;;;;5064290;28;20025;-64
2021/04/06 12:35:12;;;;;;;4.18;2.22;;;22.50;37.80;;;;;;5064803;28;20032;-63
2021/04/06 12:37:38;;;;;;;4.35;2.40;;;22.30;36.90;;;;;;5067896;28;20063;-65
2021/04/06 12:40:07;;;;;;;3.85;2.00;;;22.30;37.30;;;;;;5064302;28;20546;-65
2021/04/06 12:42:33;;;;;;;3.55;2.25;;;22.10;37.00;;;;;;5065212;28;20052;-64
2021/04/06 12:44:59;;;;;;;3.78;2.10;;;22.10;37.40;;;;;;5065707;28;20501;-65
2021/04/06 12:47:25;;;;;;;4.50;2.08;;;22.00;37.40;;;;;;5066146;28;20032;-65
2021/04/06 12:49:50;;;;;;;4.07;2.15;;;22.10;37.50;;;;;;5065219;28;20427;-65
2021/04/06 12:52:18;;;;;;;5.25;2.78;;;22.20;37.60;;;;;;5063005;28;20426;-66
2021/04/06 12:54:44;;;;;;;5.45;2.10;;;22.30;37.60;;;;;;5062975;28;20020;-65
2021/04/06 12:57:10;;;;;;;3.03;2.10;;;22.40;37.60;;;;;;5067336;28;20021;-64
2021/04/06 12:59:36;;;;;;;3.20;2.00;;;22.40;37.70;;;;;;5063456;28;20036;-65
2021/04/06 13:02:02;;;;;;;1.67;1.55;;;22.40;37.80;;;;;;5061690;28;20020;-65
2021/04/06 13:04:27;;;;;;;2.60;1.80;;;22.30;37.80;;;;;;5059549;28;20025;-66
2021/04/06 13:06:55;;;;;;;3.92;2.42;;;;;;;;;;5065244;28;20025;-64
2021/04/06 13:09:21;;;;;;;3.58;1.90;;;22.00;37.50;;;;;;5063987;28;20116;-66
2021/04/06 13:11:48;;;;;;;3.08;2.15;;;21.90;38.00;;;;;;5061365;28;20115;-65
2021/04/06 13:14:14;;;;;;;4.35;2.17;;;;;;;;;;5066200;28;20032;-64
2021/04/06 13:16:40;;;;;;;2.45;1.75;;;;;;;;;;5061314;28;20032;-65
2021/04/06 13:19:06;;;;;;;3.08;2.65;;;;;;;;;;5063176;28;20758;-65
2021/04/06 13:21:32;;;;;;;3.25;2.03;;;;;;;;;;5065024;28;20032;-64
2021/04/06 13:23:59;;;;;;;3.60;1.90;;;;;;;;;;5065807;28;20028;-65
2021/04/06 13:26:26;;;;;;;2.30;1.80;;;21.50;37.80;;;;;;5063798;28;20028;-67
2021/04/06 13:28:52;;;;;;;3.45;2.22;;;21.50;38.30;;;;;;5066658;28;20056;-66
2021/04/06 13:31:18;;;;;;;4.93;2.25;;;21.60;38.50;;;;;;5070262;28;20066;-64
2021/04/06 13:33:44;;;;;;;4.00;1.98;;;21.70;38.80;;;;;;5078415;28;20089;-65
2021/04/06 13:36:10;;;;;;;3.40;1.92;;;21.80;39.00;;;;;;5063226;28;20032;-65
2021/04/06 13:38:36;;;;;;;2.80;2.25;;;22.00;39.10;;;;;;5063946;28;20117;-66
2021/04/06 13:41:02;;;;;;;3.35;1.95;;;22.10;39.10;;;;;;5063266;28;20027;-64
2021/04/06 13:43:28;;;;;;;7.30;2.97;;;22.20;38.90;;;;;;5061171;28;20032;-66
2021/04/06 13:45:54;;;;;;;2.15;1.75;;;22.30;38.80;;;;;;5064332;28;20103;-64
2021/04/06 13:48:19;;;;;;;4.00;2.03;;;22.30;38.80;;;;;;5065963;28;20465;-65
2021/04/06 13:50:46;;;;;;;5.82;2.05;;;22.20;38.70;;;;;;5065964;28;20032;-66
2021/04/06 13:53:13;;;;;;;3.15;1.90;;;22.20;38.70;;;;;;5061243;28;20036;-68
2021/04/06 13:55:40;;;;;;;2.17;1.75;;;22.10;38.70;;;;;;5065619;28;20033;-65
2021/04/06 13:58:09;;;;;;;4.45;1.80;;;22.00;38.60;;;;;;5068548;28;20029;-65
2021/04/06 14:00:40;;;;;;;4.18;2.08;;;22.00;38.70;;;;;;5067672;28;20639;-66
2021/04/06 14:03:06;;;;;;;3.47;1.98;;;22.00;38.90;;;;;;5077578;28;20033;-64
2021/04/06 14:05:33;;;;;;;5.03;2.00;;;22.10;39.10;;;;;;5064744;28;20029;-66
2021/04/06 14:08:00;;;;;;;2.92;1.92;;;22.10;39.10;;;;;;5066830;28;20401;-66
2021/04/06 14:10:26;;;;;;;2.22;1.88;;;22.30;39.30;;;;;;5068004;28;20086;-66
2021/04/06 14:12:53;;;;;;;5.05;2.22;;;22.30;39.30;;;;;;5061177;28;20028;-65
2021/04/06 14:15:19;;;;;;;3.35;1.80;;;22.50;39.30;;;;;;5086474;28;20031;-66
2021/04/06 14:17:46;;;;;;;5.28;2.10;;;22.60;39.20;;;;;;5074192;28;20380;-65
2021/04/06 14:20:17;;;;;;;3.97;2.08;;;22.80;39.10;;;;;;5063565;28;20029;-66
2021/04/06 14:22:44;;;;;;;3.90;2.00;;;22.90;38.90;;;;;;5066999;28;20048;-66
2021/04/06 14:25:13;;;;;;;2.78;1.73;;;23.20;39.00;;;;;;5067146;28;20032;-66
2021/04/06 14:27:41;;;;;;;3.60;1.95;;;23.40;38.70;;;;;;5073247;28;20044;-66